Time;durP1;ratioP1;P1;durP2;ratioP2;P2;SDS_P1;SDS_P2;PMS_P1;PMS_P2;Temp;Humidity;BMP_temperature;BMP_pressure;BME280_temperature;BME280_humidity;BME280_pressure;Samples;Min_cycle;Max_cycle;Signal;HPM_P1;HPM_P2
2024/02/07 00:00:03;;;;;;;10.43;5.13;;;;;;;2.90;64.74;92505.84;2069548;69;20172;-84
2024/02/07 00:02:36;;;;;;;10.88;4.70;;;;;;;2.85;64.72;92492.16;2068729;69;20194;-88
2024/02/07 00:05:02;;;;;;;15.05;4.90;;;;;;;2.71;64.86;92478.53;2069374;69;20603;-80
2024/02/07 00:07:28;;;;;;;12.48;4.88;;;;;;;2.93;65.05;92506.72;2068146;69;20168;-82
2024/02/07 00:09:53;;;;;;;11.68;5.05;;;;;;;1.81;67.23;92433.97;2069114;69;20168;-83
2024/02/07 00:12:20;;;;;;;11.93;5.32;;;;;;;2.58;66.20;92500.28;2068280;69;20167;-84
2024/02/07 00:14:49;;;;;;;9.10;4.93;;;;;;;2.74;65.46;92505.19;2068678;69;20500;-86
2024/02/07 00:17:14;;;;;;;10.68;4.72;;;;;;;2.72;65.10;92507.06;2068692;69;20148;-86
2024/02/07 00:19:40;;;;;;;8.45;4.20;;;;;;;2.68;65.27;92496.31;2068189;69;20140;-82
2024/02/07 00:22:08;;;;;;;5.70;3.25;;;;;;;2.76;65.11;92485.16;2068504;69;20152;-87
2024/02/07 00:24:34;;;;;;;8.30;3.50;;;;;;;2.93;64.52;92493.59;2068568;69;20159;-84
2024/02/07 00:26:59;;;;;;;9.25;4.80;;;;;;;2.17;66.48;92500.28;2068193;69;20145;-87
2024/02/07 00:29:25;;;;;;;11.68;4.90;;;;;;;2.40;65.71;92482.78;2068614;69;20137;-80
2024/02/07 00:31:51;;;;;;;10.65;5.18;;;;;;;2.35;66.51;92497.63;2068544;69;20206;-86
2024/02/07 00:34:16;;;;;;;10.30;5.05;;;;;;;2.55;65.41;92500.09;2068455;69;20148;-83
2024/02/07 00:36:42;;;;;;;11.93;4.68;;;;;;;2.48;65.65;92489.78;2068348;69;20170;-83
2024/02/07 00:39:08;;;;;;;13.00;5.55;;;;;;;1.85;67.89;92495.38;2068418;69;20212;-82
2024/02/07 00:41:35;;;;;;;9.10;4.97;;;;;;;2.25;67.08;92489.16;2068326;69;20230;-87
2024/02/07 00:44:01;;;;;;;8.68;4.88;;;;;;;2.26;66.29;92479.50;2068444;69;20144;-84
2024/02/07 00:46:26;;;;;;;10.15;4.20;;;;;;;2.42;65.88;92491.28;2068578;69;20206;-86
2024/02/07 00:48:52;;;;;;;10.85;4.65;;;;;;;2.34;66.46;92485.00;2068245;69;20179;-84
2024/02/07 00:51:18;;;;;;;8.90;4.55;;;;;;;2.37;65.53;92478.34;2068459;69;20149;-85
2024/02/07 00:53:43;;;;;;;7.55;4.30;;;;;;;2.41;65.05;92493.31;2068045;69;20160;-86
2024/02/07 00:56:09;;;;;;;11.30;4.25;;;;;;;2.40;65.01;92489.06;2068361;69;20159;-84
2024/02/07 00:58:34;;;;;;;9.23;4.13;;;;;;;2.09;66.83;92476.59;2068046;69;20183;-85
2024/02/07 01:01:00;;;;;;;9.32;4.78;;;;;;;2.38;65.89;92483.31;2068728;69;20144;-82
2024/02/07 01:03:26;;;;;;;9.10;4.22;;;;;;;2.46;65.90;92488.84;2068356;69;20604;-85
2024/02/07 01:05:51;;;;;;;7.03;4.22;;;;;;;2.38;65.30;92474.97;2067970;69;20152;-83
2024/02/07 01:08:17;;;;;;;9.35;3.88;;;;;;;2.15;66.94;92472.31;2068924;69;20140;-86
2024/02/07 01:10:44;;;;;;;7.28;3.88;;;;;;;2.36;66.16;92476.88;2068619;69;20199;-81
2024/02/07 01:13:09;;;;;;;7.57;4.25;;;;;;;1.83;68.20;92495.19;2068749;69;20140;-86
2024/02/07 01:15:35;;;;;;;9.20;5.05;;;;;;;2.13;66.79;92488.81;2068885;69;20133;-86
2024/02/07 01:18:01;;;;;;;9.48;4.30;;;;;;;2.12;67.10;92484.56;2068930;69;20137;-84
2024/02/07 01:20:27;;;;;;;10.35;4.43;;;;;;;2.16;66.54;92482.13;2069197;69;20142;-82
2024/02/07 01:22:53;;;;;;;9.20;4.07;;;;;;;2.29;65.58;92486.69;2068867;69;20248;-82
2024/02/07 01:25:18;;;;;;;12.07;4.78;;;;;;;1.94;66.57;92478.16;2068861;69;20531;-83
2024/02/07 01:27:44;;;;;;;8.80;4.10;;;;;;;2.04;65.79;92469.97;2068939;69;20140;-83
2024/02/07 01:30:13;;;;;;;8.73;4.40;;;;;;;1.77;66.02;92439.88;2069180;69;20156;-80
2024/02/07 01:32:42;;;;;;;9.95;4.10;;;;;;;2.03;65.57;92472.00;2069002;69;20172;-85
2024/02/07 01:35:11;;;;;;;8.07;4.40;;;;;;;2.20;65.94;92487.28;2069120;69;20145;-84
2024/02/07 01:37:40;;;;;;;7.22;3.47;;;;;;;1.87;65.54;92478.16;2068860;69;20535;-85
2024/02/07 01:40:09;;;;;;;8.40;4.10;;;;;;;1.33;68.57;92474.75;2068759;69;20526;-86
2024/02/07 01:42:36;;;;;;;7.90;3.75;;;;;;;1.37;67.10;92414.84;2068945;69;20140;-80
2024/02/07 01:45:22;;;;;;;6.90;3.80;;;;;;;1.92;66.62;92491.09;2068770;69;20148;-84
2024/02/07 01:47:50;;;;;;;11.85;4.20;;;;;;;1.78;66.66;92460.03;2068147;69;20147;-88
2024/02/07 01:50:16;;;;;;;11.23;4.32;;;;;;;1.70;66.76;92462.88;2068803;69;20145;-81
2024/02/07 01:52:46;;;;;;;9.68;4.07;;;;;;;1.67;65.99;92419.56;2068515;69;20179;-87
2024/02/07 01:55:13;;;;;;;16.65;7.25;;;;;;;0.80;70.42;92458.88;2068122;69;20643;-83
2024/02/07 01:57:40;;;;;;;11.98;5.47;;;;;;;1.62;68.90;92473.25;2068333;69;20233;-84
2024/02/07 02:00:08;;;;;;;10.30;4.97;;;;;;;1.93;67.21;92468.34;2065986;69;20149;-82
2024/02/07 02:02:38;;;;;;;8.75;4.32;;;;;;;1.75;67.61;92464.69;2065415;69;20587;-84
2024/02/07 02:05:05;;;;;;;8.63;4.30;;;;;;;1.94;67.19;92464.25;2065297;69;20235;-84
2024/02/07 02:07:31;;;;;;;7.38;4.15;;;;;;;1.73;66.96;92444.34;2065416;69;20774;-81
2024/02/07 02:09:57;;;;;;;7.35;3.97;;;;;;;1.87;66.82;92439.28;2065730;69;20133;-81
2024/02/07 02:12:23;;;;;;;7.88;3.72;;;;;;;1.94;67.13;92447.59;2065308;69;20169;-83
2024/02/07 02:14:49;;;;;;;7.80;4.07;;;;;;;2.03;66.48;92433.13;2065557;69;20159;-82
2024/02/07 02:17:15;;;;;;;8.27;3.85;;;;;;;1.71;67.36;92435.84;2065621;69;20188;-84
2024/02/07 02:19:41;;;;;;;7.72;4.13;;;;;;;1.77;67.68;92445.44;2065353;69;20203;-85
2024/02/07 02:22:34;;;;;;;8.57;3.80;;;;;;;1.87;67.10;92436.53;2065574;69;20141;-82
2024/02/07 02:25:21;;;;;;;8.85;3.42;;;;;;;1.94;66.62;92438.53;2065778;69;20781;-87
2024/02/07 02:28:07;;;;;;;8.73;3.83;;;;;;;1.11;69.36;92423.59;2065153;69;20145;-83
2024/02/07 02:30:41;;;;;;;6.97;3.60;;;;;;;1.46;69.48;92438.50;2065411;69;20589;-84
2024/02/07 02:33:12;;;;;;;8.80;3.38;;;;;;;1.66;68.13;92428.47;2065484;69;20152;-83
2024/02/07 02:35:40;;;;;;;5.65;3.20;;;;;;;1.79;67.58;92431.00;2068221;69;20218;-84
2024/02/07 02:38:06;;;;;;;7.72;3.97;;;;;;;1.60;68.13;92427.91;2069094;69;20149;-85
2024/02/07 02:40:32;;;;;;;8.85;4.20;;;;;;;1.23;68.62;92428.16;2068796;69;20199;-82
2024/02/07 02:42:59;;;;;;;10.48;4.03;;;;;;;1.46;68.83;92436.44;2068843;69;20235;-85
2024/02/07 02:45:24;;;;;;;7.43;3.95;;;;;;;1.65;67.40;92427.72;2065660;69;20152;-86
2024/02/07 02:47:50;;;;;;;6.72;3.63;;;;;;;1.72;67.93;92420.66;2069167;69;20141;-82
2024/02/07 02:50:16;;;;;;;8.73;3.50;;;;;;;1.85;67.16;92419.69;2069220;69;20156;-87
2024/02/07 02:52:42;;;;;;;7.72;3.97;;;;;;;1.91;66.22;92420.22;2069751;69;20717;-80
2024/02/07 02:55:09;;;;;;;8.50;3.97;;;;;;;1.63;67.75;92424.03;2069396;69;20161;-79
2024/02/07 02:57:36;;;;;;;8.13;3.58;;;;;;;1.81;66.25;92425.63;2069281;69;20596;-81
2024/02/07 03:00:06;;;;;;;6.93;3.53;;;;;;;1.18;68.86;92408.97;2068771;69;20168;-83
2024/02/07 03:02:35;;;;;;;9.60;4.07;;;;;;;1.49;68.19;92440.88;2068829;69;20140;-88
2024/02/07 03:05:02;;;;;;;7.93;4.07;;;;;;;1.53;67.76;92415.56;2068910;69;20211;-87
2024/02/07 03:07:54;;;;;;;6.10;3.30;;;;;;;1.64;67.71;92406.81;2069481;69;20611;-81
2024/02/07 03:10:23;;;;;;;6.75;3.60;;;;;;;1.06;69.03;92407.88;2069142;69;20152;-85
2024/02/07 03:12:50;;;;;;;9.77;4.07;;;;;;;1.06;70.33;92410.66;2068925;69;20152;-85
2024/02/07 03:15:17;;;;;;;7.38;3.75;;;;;;;1.47;69.00;92415.75;2068604;69;20160;-83
2024/02/07 03:17:42;;;;;;;7.43;3.85;;;;;;;1.64;67.77;92395.72;2068630;69;20165;-83
2024/02/07 03:20:11;;;;;;;9.63;3.97;;;;;;;1.59;67.72;92393.88;2069510;69;20163;-85
2024/02/07 03:22:37;;;;;;;5.32;3.25;;;;;;;1.51;67.14;92390.38;2066824;69;20567;-80
2024/02/07 03:25:04;;;;;;;6.85;3.20;;;;;;;1.50;67.09;92375.78;2065166;69;20177;-86
2024/02/07 03:27:29;;;;;;;8.25;3.40;;;;;;;1.25;68.63;92361.06;2065477;69;20636;-82
2024/02/07 03:29:56;;;;;;;5.75;3.22;;;;;;;1.50;68.91;92370.22;2065211;69;20148;-84
2024/02/07 03:32:24;;;;;;;6.53;2.90;;;;;;;1.45;67.96;92359.34;2064595;69;20527;-86
2024/02/07 03:34:51;;;;;;;7.32;3.80;;;;;;;0.98;70.29;92367.03;2065324;69;20221;-86
2024/02/07 03:37:17;;;;;;;6.28;3.55;;;;;;;1.42;68.82;92360.47;2065502;69;20207;-85
2024/02/07 03:39:43;;;;;;;6.82;3.38;;;;;;;1.11;69.38;92362.59;2065283;69;20176;-81
2024/02/07 03:42:10;;;;;;;7.55;3.50;;;;;;;1.23;69.17;92360.88;2065033;69;20630;-82
2024/02/07 03:44:39;;;;;;;5.30;3.38;;;;;;;1.48;68.15;92356.19;2065468;69;20156;-84
2024/02/07 03:47:05;;;;;;;8.45;3.13;;;;;;;1.57;67.44;92368.00;2068354;69;20180;-83
2024/02/07 03:49:30;;;;;;;7.28;3.35;;;;;;;1.04;69.30;92321.75;2068213;69;20155;-83
2024/02/07 03:51:56;;;;;;;6.72;3.13;;;;;;;1.30;68.62;92354.59;2068405;69;20121;-81
2024/02/07 03:54:21;;;;;;;7.70;3.25;;;;;;;1.15;69.02;92357.41;2068467;69;20146;-86
2024/02/07 03:56:47;;;;;;;7.13;3.70;;;;;;;1.24;68.36;92354.78;2068260;69;20160;-84
2024/02/07 03:59:13;;;;;;;6.75;3.20;;;;;;;1.28;68.61;92354.41;2068321;69;20180;-83
2024/02/07 04:01:38;;;;;;;6.47;3.35;;;;;;;1.34;68.62;92348.66;2068642;69;20148;-80
2024/02/07 04:04:08;;;;;;;6.35;3.50;;;;;;;1.09;68.70;92343.00;2068491;69;20596;-80
2024/02/07 04:06:34;;;;;;;5.97;3.80;;;;;;;1.28;68.16;92348.84;2068667;69;20230;-82
2024/02/07 04:09:05;;;;;;;7.55;3.40;;;;;;;1.15;68.40;92352.59;2068563;69;20166;-84
2024/02/07 05:16:41;;;;;;;8.98;4.10;;;;;;;1.05;68.98;92335.03;2065279;69;20167;-83
2024/02/07 05:19:06;;;;;;;8.07;4.20;;;;;;;0.78;69.08;92323.66;2067766;69;20519;-82
2024/02/07 05:21:34;;;;;;;10.68;4.32;;;;;;;0.78;70.12;92329.22;2067960;69;20515;-86
2024/02/07 05:24:00;;;;;;;8.73;4.28;;;;;;;0.88;69.90;92315.53;2065729;69;20180;-82
2024/02/07 05:26:26;;;;;;;8.02;3.17;;;;;;;0.97;69.88;92326.75;2066331;69;20145;-85
2024/02/07 05:28:51;;;;;;;9.07;5.18;;;;;;;0.80;70.20;92326.59;2066269;69;20172;-84
2024/02/07 05:31:17;;;;;;;7.57;4.15;;;;;;;0.93;69.69;92315.31;2065820;69;20611;-81
2024/02/07 05:33:43;;;;;;;10.70;5.00;;;;;;;1.00;69.45;92313.81;2065583;69;20148;-87
2024/02/07 05:36:08;;;;;;;10.88;5.05;;;;;;;1.00;69.28;92316.59;2065439;69;20536;-83
2024/02/07 05:38:34;;;;;;;12.00;5.63;;;;;;;0.83;69.64;92308.16;2065532;69;20192;-84
2024/02/07 05:41:01;;;;;;;10.55;5.30;;;;;;;0.93;69.66;92315.31;2065228;69;20144;-86
2024/02/07 05:43:27;;;;;;;9.30;4.75;;;;;;;0.76;69.10;92315.16;2065508;69;20501;-87
2024/02/07 05:45:55;;;;;;;8.38;3.97;;;;;;;1.00;69.41;92299.94;2065421;69;20151;-82
2024/02/07 05:48:21;;;;;;;8.15;4.03;;;;;;;0.90;69.20;92310.16;2065352;69;20137;-81
2024/02/07 05:50:46;;;;;;;14.18;5.70;;;;;;;0.77;69.63;92306.28;2065783;69;20145;-83
2024/02/07 05:53:12;;;;;;;11.30;5.70;;;;;;;0.82;68.87;92312.91;2066138;69;20153;-83
2024/02/07 05:55:38;;;;;;;11.55;5.88;;;;;;;0.84;69.13;92315.16;2066036;69;20141;-84
2024/02/07 05:58:05;;;;;;;10.55;5.57;;;;;;;0.86;68.57;92293.88;2066346;69;20609;-81
2024/02/07 06:00:31;;;;;;;11.70;5.25;;;;;;;0.94;68.14;92313.28;2068249;69;20592;-84
2024/02/07 06:02:56;;;;;;;9.23;4.55;;;;;;;0.93;68.22;92320.13;2066136;69;20151;-86
2024/02/07 06:05:23;;;;;;;7.25;4.07;;;;;;;1.06;67.90;92321.94;2066928;69;20692;-86
2024/02/07 06:07:48;;;;;;;9.02;3.40;;;;;;;0.88;69.08;92330.13;2066001;69;20149;-87
2024/02/07 06:10:14;;;;;;;9.38;4.90;;;;;;;0.95;68.40;92314.75;2065595;69;20539;-87
2024/02/07 06:12:44;;;;;;;8.70;4.50;;;;;;;0.91;68.49;92317.91;2065696;69;20235;-85
2024/02/07 06:15:11;;;;;;;26.80;10.38;;;;;;;0.49;71.40;92339.75;2065617;69;20160;-82
2024/02/07 06:17:38;;;;;;;13.52;5.78;;;;;;;0.81;70.03;92341.94;2067656;69;20152;-79
2024/02/07 06:20:04;;;;;;;9.18;5.15;;;;;;;0.93;68.85;92328.44;2069035;69;20198;-82
2024/02/07 06:22:29;;;;;;;29.45;11.57;;;;;;;0.88;69.44;92332.16;2068950;69;20137;-83
2024/02/07 06:24:55;;;;;;;14.43;5.18;;;;;;;0.54;70.98;92338.09;2068527;69;20151;-81
2024/02/07 06:27:20;;;;;;;10.88;5.15;;;;;;;0.27;71.85;92332.16;2068182;69;20148;-83
2024/02/07 06:29:46;;;;;;;7.80;4.07;;;;;;;0.71;70.82;92346.56;2068109;69;20560;-81
2024/02/07 06:32:12;;;;;;;10.13;4.63;;;;;;;0.70;70.41;92334.00;2070220;69;20171;-86
2024/02/07 06:34:37;;;;;;;8.73;4.63;;;;;;;0.65;69.98;92344.00;2070243;69;20136;-87
2024/02/07 06:37:03;;;;;;;8.40;3.95;;;;;;;0.41;71.01;92333.47;2068995;69;20626;-84
2024/02/07 06:39:29;;;;;;;9.93;4.57;;;;;;;0.70;70.68;92361.72;2069665;69;20535;-76
2024/02/07 06:41:54;;;;;;;13.85;7.18;;;;;;;0.54;71.29;92363.75;2068483;69;20156;-78
2024/02/07 06:44:20;;;;;;;11.20;5.18;;;;;;;0.77;70.28;92350.63;2068266;69;20136;-76
2024/02/07 06:46:46;;;;;;;9.35;4.85;;;;;;;0.73;70.51;92369.66;2068184;69;20141;-78
2024/02/07 06:49:12;;;;;;;11.65;5.20;;;;;;;0.79;70.56;92368.75;2068869;69;20144;-77
2024/02/07 06:51:37;;;;;;;11.25;5.90;;;;;;;0.61;70.01;92348.44;2068306;69;20678;-76
2024/02/07 06:54:03;;;;;;;12.70;6.32;;;;;;;0.47;71.79;92376.31;2068984;69;20152;-78
2024/02/07 06:56:29;;;;;;;10.85;5.70;;;;;;;0.82;70.44;92357.25;2070064;69;20159;-76
2024/02/07 06:58:55;;;;;;;10.98;5.35;;;;;;;1.00;69.10;92358.16;2070366;69;20128;-77
2024/02/07 07:01:21;;;;;;;12.25;5.60;;;;;;;0.97;69.42;92368.34;2068871;69;20214;-77
2024/02/07 07:03:50;;;;;;;17.48;6.43;;;;;;;0.72;70.85;92379.25;2071645;69;20176;-78
2024/02/07 07:06:16;;;;;;;14.55;6.68;;;;;;;0.95;70.21;92364.63;2072186;69;20670;-78
2024/02/07 07:08:41;;;;;;;12.35;6.07;;;;;;;1.07;69.40;92365.75;2072208;69;20224;-78
2024/02/07 07:11:07;;;;;;;14.10;5.43;;;;;;;0.94;70.21;92371.47;2070938;69;20193;-78
2024/02/07 07:13:32;;;;;;;14.18;5.95;;;;;;;1.32;71.84;92354.03;2072215;69;20612;-78
2024/02/07 07:15:58;;;;;;;11.02;5.35;;;;;;;1.48;69.46;92358.97;2065303;69;20155;-79
2024/02/07 07:18:24;;;;;;;14.23;7.38;;;;;;;0.73;71.76;92347.50;2066488;69;20259;-79
2024/02/07 07:20:49;;;;;;;17.55;7.90;;;;;;;1.23;70.29;92363.66;2068786;69;20611;-78
2024/02/07 07:23:15;;;;;;;18.58;7.72;;;;;;;1.23;70.06;92377.53;2067359;69;20148;-78
2024/02/07 07:25:40;;;;;;;17.60;7.75;;;;;;;1.46;70.08;92358.03;2068764;69;20228;-79
2024/02/07 07:28:06;;;;;;;14.68;7.28;;;;;;;1.62;70.51;92369.84;2068632;69;20643;-79
2024/02/07 07:30:32;;;;;;;13.10;6.57;;;;;;;1.54;69.68;92350.44;2067809;69;20171;-78
2024/02/07 07:32:57;;;;;;;15.25;7.18;;;;;;;1.09;70.57;92370.72;2066899;69;20229;-77
2024/02/07 07:35:23;;;;;;;18.13;8.18;;;;;;;1.27;70.53;92366.78;2064414;69;20176;-76
2024/02/07 07:37:48;;;;;;;17.58;8.55;;;;;;;1.66;70.02;92364.63;2064557;69;20153;-79
2024/02/07 07:40:14;;;;;;;17.17;7.90;;;;;;;1.56;69.46;92363.72;2064506;69;20614;-78
2024/02/07 07:42:41;;;;;;;16.83;8.07;;;;;;;1.40;70.81;92368.59;2066225;69;20159;-78
2024/02/07 07:45:07;;;;;;;20.08;8.23;;;;;;;1.65;69.63;92369.47;2068808;69;20152;-81
2024/02/07 07:47:33;;;;;;;17.30;7.82;;;;;;;1.38;70.25;92374.72;2068666;69;20596;-81
2024/02/07 07:49:59;;;;;;;14.50;7.18;;;;;;;1.76;69.99;92382.16;2068793;69;20147;-81
2024/02/07 07:52:24;;;;;;;16.92;7.60;;;;;;;2.10;69.04;92380.88;2067741;69;20302;-80
2024/02/07 07:54:50;;;;;;;16.55;7.03;;;;;;;2.25;68.78;92369.72;2068299;69;20674;-81
2024/02/07 07:57:16;;;;;;;16.00;7.72;;;;;;;2.24;68.57;92363.38;2067858;69;20669;-81
2024/02/07 07:59:41;;;;;;;16.17;7.13;;;;;;;1.93;69.04;92345.47;2068503;69;20156;-80
2024/02/07 08:02:07;;;;;;;15.02;7.72;;;;;;;2.53;67.44;92363.75;2067541;69;20141;-79
2024/02/07 08:04:32;;;;;;;14.85;8.27;;;;;;;2.43;67.47;92364.94;2067361;69;20164;-79
2024/02/07 08:06:58;;;;;;;20.15;10.32;;;;;;;2.80;66.47;92344.47;2067964;69;20175;-80
2024/02/07 08:09:24;;;;;;;19.23;9.43;;;;;;;2.87;65.48;92322.72;2068263;69;20180;-80
2024/02/07 08:11:52;;;;;;;19.75;8.63;;;;;;;2.79;65.93;92345.03;2068232;69;20603;-81
2024/02/07 08:14:18;;;;;;;17.67;8.60;;;;;;;3.26;65.41;92346.81;2068343;69;20188;-83
2024/02/07 08:16:44;;;;;;;19.63;9.27;;;;;;;3.26;65.12;92334.97;2068520;69;20230;-82
2024/02/07 08:19:13;;;;;;;17.77;8.23;;;;;;;3.30;64.57;92363.84;2068347;69;20161;-81
2024/02/07 08:21:39;;;;;;;24.75;10.90;;;;;;;2.64;67.34;92370.16;2068698;69;20165;-79
2024/02/07 08:24:05;;;;;;;20.50;8.38;;;;;;;3.21;66.88;92358.94;2068645;69;20230;-80
2024/02/07 08:26:30;;;;;;;14.73;7.00;;;;;;;3.06;67.00;92353.50;2068648;69;20156;-79
2024/02/07 08:28:56;;;;;;;17.38;8.32;;;;;;;3.19;66.29;92355.97;2068700;69;20513;-80
2024/02/07 08:31:21;;;;;;;19.13;8.52;;;;;;;3.03;67.17;92349.09;2068598;69;20152;-81
2024/02/07 08:33:47;;;;;;;15.52;8.10;;;;;;;3.61;65.67;92341.22;2068530;69;20161;-80
2024/02/07 08:36:13;;;;;;;21.92;10.07;;;;;;;3.85;65.44;92355.59;2068648;69;20161;-80
2024/02/07 08:38:38;;;;;;;18.48;9.82;;;;;;;3.99;64.90;92326.84;2068605;69;20220;-78
2024/02/07 08:41:04;;;;;;;24.00;10.40;;;;;;;3.87;66.69;92327.94;2068643;69;20242;-81
2024/02/07 08:43:30;;;;;;;19.77;9.88;;;;;;;2.72;66.73;92345.84;2068083;69;20160;-80
2024/02/07 08:45:55;;;;;;;15.40;8.43;;;;;;;3.45;66.85;92331.59;2068611;69;20156;-79
2024/02/07 08:48:21;;;;;;;14.15;7.53;;;;;;;3.75;65.35;92330.47;2068453;69;20168;-81
2024/02/07 08:50:46;;;;;;;17.05;8.13;;;;;;;3.71;64.57;92333.72;2068673;69;20583;-79
2024/02/07 08:53:12;;;;;;;20.88;7.50;;;;;;;4.18;63.99;92323.44;2068679;69;20156;-77
2024/02/07 08:55:38;;;;;;;16.15;7.82;;;;;;;3.74;63.89;92321.41;2068585;69;20176;-81
2024/02/07 08:58:03;;;;;;;17.15;8.05;;;;;;;4.05;63.93;92313.38;2068586;69;20156;-78
2024/02/07 09:00:29;;;;;;;16.95;7.95;;;;;;;4.10;64.04;92297.00;2068756;69;20275;-78
2024/02/07 09:02:55;;;;;;;16.88;7.32;;;;;;;3.89;63.76;92314.16;2068419;69;20199;-78
2024/02/07 09:05:20;;;;;;;18.05;8.05;;;;;;;4.21;63.22;92296.44;2068785;69;20163;-79
2024/02/07 09:07:47;;;;;;;32.97;15.65;;;;;;;4.26;62.63;92296.19;2068525;69;20160;-78
2024/02/07 09:10:14;;;;;;;38.97;17.75;;;;;;;3.77;63.03;92295.19;2068504;69;20255;-77
2024/02/07 09:12:40;;;;;;;30.58;14.85;;;;;;;4.11;63.32;92290.09;2068507;69;20246;-79
2024/02/07 09:15:09;;;;;;;29.38;13.63;;;;;;;4.35;62.51;92294.75;2068435;69;20156;-77
2024/02/07 09:17:35;;;;;;;25.45;11.85;;;;;;;4.73;62.11;92277.44;2068551;69;20304;-80
2024/02/07 09:20:01;;;;;;;30.30;13.95;;;;;;;5.00;61.29;92271.75;2068639;69;20267;-81
2024/02/07 09:22:27;;;;;;;25.60;10.98;;;;;;;4.63;62.29;92271.09;2068483;69;20148;-80
2024/02/07 09:24:52;;;;;;;17.95;10.43;;;;;;;5.44;63.98;92281.91;2068398;69;20152;-79
2024/02/07 09:27:18;;;;;;;17.70;8.55;;;;;;;5.94;62.24;92286.88;2068501;69;20235;-79
2024/02/07 09:29:44;;;;;;;25.42;12.45;;;;;;;6.73;60.59;92279.69;2068936;69;20603;-79
2024/02/07 09:32:10;;;;;;;20.90;11.32;;;;;;;7.26;60.89;92269.97;2069033;69;20148;-79
2024/02/07 09:34:36;;;;;;;12.30;6.93;;;;;;;7.48;56.12;92256.69;2068880;69;20674;-80
2024/02/07 09:37:02;;;;;;;16.70;9.07;;;;;;;7.36;55.93;92262.22;2068990;69;20216;-79
2024/02/07 09:39:28;;;;;;;25.63;11.13;;;;;;;6.53;58.01;92274.22;2069357;69;20153;-80
2024/02/07 09:41:56;;;;;;;20.35;8.95;;;;;;;7.44;56.94;92264.09;2069101;69;20168;-80
2024/02/07 09:44:25;;;;;;;19.98;9.57;;;;;;;7.64;56.95;92266.13;2068995;69;20137;-80
2024/02/07 09:46:54;;;;;;;14.45;6.95;;;;;;;8.70;55.09;92249.56;2069000;69;20182;-80
2024/02/07 09:49:23;;;;;;;20.77;7.53;;;;;;;8.58;53.80;92249.56;2068936;69;20157;-80
2024/02/07 09:51:49;;;;;;;20.13;7.93;;;;;;;9.03;52.32;92252.25;2068904;69;20144;-80
2024/02/07 09:54:18;;;;;;;16.15;7.03;;;;;;;9.61;50.63;92239.38;2068503;69;20184;-81
2024/02/07 09:56:45;;;;;;;13.55;6.97;;;;;;;10.13;48.49;92235.25;2068937;69;20164;-81
2024/02/07 09:59:12;;;;;;;12.60;7.15;;;;;;;10.43;49.45;92236.91;2069014;69;20149;-81
2024/02/07 10:01:38;;;;;;;11.32;5.90;;;;;;;11.31;47.38;92230.19;2068950;69;20207;-81
2024/02/07 10:04:09;;;;;;;13.15;6.00;;;;;;;11.89;46.67;92231.66;2068754;69;20187;-81
2024/02/07 10:06:35;;;;;;;11.70;6.55;;;;;;;11.72;46.01;92223.75;2069075;69;20229;-81
2024/02/07 10:09:01;;;;;;;15.40;9.43;;;;;;;11.19;46.52;92230.31;2068397;69;20155;-79
2024/02/07 10:11:29;;;;;;;10.77;5.35;;;;;;;10.52;46.50;92228.91;2068938;69;20148;-78
2024/02/07 10:13:55;;;;;;;14.68;6.35;;;;;;;10.00;48.68;92208.53;2068868;69;20259;-81
2024/02/07 10:16:21;;;;;;;11.27;5.68;;;;;;;10.33;47.86;92202.63;2069022;69;20141;-78
2024/02/07 10:18:49;;;;;;;15.75;6.22;;;;;;;9.53;48.52;92217.19;2068765;69;20143;-79
2024/02/07 10:21:15;;;;;;;8.52;5.43;;;;;;;9.57;47.82;92213.88;2068307;69;20148;-79
2024/02/07 10:23:41;;;;;;;12.35;5.32;;;;;;;10.33;46.91;92213.16;2068988;69;20155;-79
2024/02/07 10:26:08;;;;;;;12.77;6.28;;;;;;;10.91;45.60;92218.34;2068856;69;20183;-79
2024/02/07 10:28:33;;;;;;;14.60;5.88;;;;;;;10.45;47.52;92211.00;2068469;69;20172;-80
2024/02/07 10:31:04;;;;;;;10.07;5.95;;;;;;;11.15;46.65;92207.56;2068798;69;20273;-80
2024/02/07 10:33:37;;;;;;;8.73;5.03;;;;;;;11.07;43.72;92204.34;2068722;69;20133;-80
2024/02/07 10:36:04;;;;;;;12.18;6.35;;;;;;;10.76;45.97;92202.03;2068867;69;20164;-80
2024/02/07 10:38:32;;;;;;;10.10;5.50;;;;;;;11.62;45.03;92192.25;2068883;69;20125;-80
2024/02/07 10:41:00;;;;;;;9.73;5.25;;;;;;;11.11;45.57;92184.09;2068816;69;20168;-81
2024/02/07 10:43:33;;;;;;;10.90;5.80;;;;;;;9.90;47.34;92177.06;2068995;69;20639;-81
2024/02/07 10:46:01;;;;;;;11.23;5.95;;;;;;;10.73;46.89;92175.16;2068827;69;20153;-81
2024/02/07 10:48:27;;;;;;;10.50;5.40;;;;;;;10.02;47.74;92180.53;2068837;69;20148;-81
2024/02/07 10:50:53;;;;;;;10.18;6.07;;;;;;;11.14;46.59;92182.84;2068812;69;20141;-81
2024/02/07 10:53:19;;;;;;;13.30;5.15;;;;;;;11.55;46.00;92170.78;2068449;69;20571;-81
2024/02/07 10:55:45;;;;;;;11.63;5.85;;;;;;;12.58;43.72;92165.69;2068858;69;20156;-81
2024/02/07 10:58:15;;;;;;;12.13;6.35;;;;;;;12.44;43.98;92177.81;2068838;69;20148;-81
2024/02/07 11:00:42;;;;;;;12.85;5.45;;;;;;;10.73;45.58;92165.97;2068860;69;20198;-81
2024/02/07 11:03:09;;;;;;;10.43;6.18;;;;;;;12.01;44.33;92160.28;2068807;69;20158;-81
2024/02/07 11:05:35;;;;;;;9.75;5.75;;;;;;;10.71;46.31;92149.69;2068820;69;20155;-81
2024/02/07 11:08:01;;;;;;;11.20;5.85;;;;;;;11.15;45.77;92154.03;2068502;69;20228;-80
2024/02/07 11:10:28;;;;;;;9.48;4.97;;;;;;;11.85;45.21;92143.31;2065441;69;20228;-80
2024/02/07 11:12:55;;;;;;;10.13;5.15;;;;;;;12.65;43.55;92139.94;2065614;69;20156;-81
2024/02/07 11:15:21;;;;;;;21.40;9.35;;;;;;;13.03;43.69;92120.34;2065655;69;20152;-81
2024/02/07 11:17:48;;;;;;;19.95;9.20;;;;;;;13.02;42.61;92132.31;2065376;69;20232;-81
2024/02/07 11:20:14;;;;;;;11.55;6.28;;;;;;;13.05;43.44;92122.53;2065517;69;20627;-81
2024/02/07 11:22:48;;;;;;;14.98;7.18;;;;;;;11.58;44.48;92121.56;2065481;69;20177;-80
2024/02/07 11:25:19;;;;;;;14.05;7.22;;;;;;;11.79;45.20;92115.53;2065544;69;20144;-81
2024/02/07 11:27:45;;;;;;;10.75;6.00;;;;;;;11.67;44.84;92118.50;2065437;69;20171;-81
2024/02/07 11:30:11;;;;;;;13.25;5.95;;;;;;;11.32;45.49;92110.50;2065374;69;20188;-81
2024/02/07 11:32:40;;;;;;;9.40;5.75;;;;;;;11.41;44.28;92101.09;2065283;69;20153;-81
2024/02/07 11:35:10;;;;;;;12.07;5.63;;;;;;;11.32;44.79;92087.97;2065464;69;20228;-81
2024/02/07 11:37:38;;;;;;;9.63;5.68;;;;;;;11.57;45.30;92086.28;2064993;69;20266;-81
2024/02/07 11:40:06;;;;;;;12.98;5.93;;;;;;;11.56;45.58;92084.84;2065470;69;20176;-80
2024/02/07 11:42:40;;;;;;;12.48;6.03;;;;;;;11.40;45.54;92074.25;2065307;69;20505;-82
2024/02/07 11:45:12;;;;;;;9.23;5.18;;;;;;;10.27;46.57;92081.34;2065418;69;20565;-82
2024/02/07 11:47:42;;;;;;;13.98;5.30;;;;;;;9.41;48.63;92085.19;2065257;69;20236;-81
2024/02/07 11:50:13;;;;;;;14.73;6.55;;;;;;;10.28;47.85;92085.59;2065290;69;20153;-82
2024/02/07 11:52:40;;;;;;;11.52;6.20;;;;;;;10.53;47.22;92067.16;2065381;69;20137;-82
2024/02/07 11:55:16;;;;;;;12.68;5.40;;;;;;;10.24;46.78;92068.50;2064695;69;20161;-81
2024/02/07 11:57:57;;;;;;;15.15;5.63;;;;;;;9.35;49.40;92068.00;2065384;69;20152;-83
2024/02/07 12:00:23;;;;;;;10.15;5.40;;;;;;;9.94;48.90;92064.78;2065232;69;20232;-83
2024/02/07 12:02:51;;;;;;;14.23;5.90;;;;;;;10.25;47.46;92061.53;2065263;69;20597;-83
2024/02/07 12:05:18;;;;;;;12.90;6.95;;;;;;;10.10;47.19;92056.50;2065334;69;20180;-82
2024/02/07 12:07:46;;;;;;;16.08;6.20;;;;;;;9.23;49.81;92036.44;2065327;69;20232;-81
2024/02/07 12:10:12;;;;;;;15.38;5.97;;;;;;;10.14;48.82;92039.84;2065360;69;20501;-80
2024/02/07 12:12:37;;;;;;;10.82;5.47;;;;;;;10.35;48.11;92033.91;2065329;69;20145;-81
2024/02/07 12:15:04;;;;;;;11.88;6.20;;;;;;;9.83;49.57;92049.50;2065352;69;20180;-82
2024/02/07 12:17:31;;;;;;;12.05;5.70;;;;;;;11.82;46.98;92032.53;2065264;69;20137;-81
2024/02/07 12:20:00;;;;;;;11.15;6.13;;;;;;;12.92;44.78;92030.88;2065305;69;20236;-82
2024/02/07 12:22:27;;;;;;;12.60;5.97;;;;;;;11.53;44.75;92018.44;2065302;69;20195;-81
2024/02/07 12:24:54;;;;;;;14.60;6.13;;;;;;;10.15;47.60;92022.31;2065394;69;20223;-84
2024/02/07 12:27:19;;;;;;;9.38;5.53;;;;;;;11.10;46.44;92031.28;2065481;69;20153;-82
2024/02/07 12:29:52;;;;;;;10.68;5.30;;;;;;;11.57;46.28;92013.72;2065376;69;20629;-82
2024/02/07 12:32:18;;;;;;;;;;;;;;;11.36;45.27;92014.13;2065367;69;20159;-81
2024/02/07 12:34:45;;;;;;;14.38;6.05;;;;;;;10.94;45.93;92010.75;2065418;69;20409;-80
2024/02/07 12:37:13;;;;;;;12.00;6.25;;;;;;;11.29;45.64;92001.16;2065324;69;20141;-80